sensor_id;sensor_type;location;lat;lon;timestamp;P1;durP1;ratioP1;P2;durP2;ratioP2
8694;SDS011;65580;49.446;6.854;2023-04-03T00:00:26;5.13;;;3.00;;
8694;SDS011;65580;49.446;6.854;2023-04-03T00:04:30;6.78;;;3.30;;
8694;SDS011;65580;49.446;6.854;2023-04-03T00:12:36;3.72;;;2.40;;
8694;SDS011;65580;49.446;6.854;2023-04-03T00:16:39;7.53;;;3.35;;
8694;SDS011;65580;49.446;6.854;2023-04-03T00:20:44;4.40;;;2.83;;
8694;SDS011;65580;49.446;6.854;2023-04-03T00:24:47;5.53;;;3.20;;
8694;SDS011;65580;49.446;6.854;2023-04-03T00:28:50;4.70;;;2.50;;
8694;SDS011;65580;49.446;6.854;2023-04-03T00:32:53;5.78;;;3.30;;
8694;SDS011;65580;49.446;6.854;2023-04-03T00:36:58;5.75;;;3.20;;
8694;SDS011;65580;49.446;6.854;2023-04-03T00:41:01;6.55;;;2.90;;
8694;SDS011;65580;49.446;6.854;2023-04-03T00:45:24;5.32;;;2.92;;
8694;SDS011;65580;49.446;6.854;2023-04-03T00:49:33;7.07;;;3.22;;
8694;SDS011;65580;49.446;6.854;2023-04-03T00:53:38;6.05;;;2.90;;
8694;SDS011;65580;49.446;6.854;2023-04-03T00:57:44;4.30;;;2.70;;
8694;SDS011;65580;49.446;6.854;2023-04-03T01:01:48;6.45;;;3.00;;
8694;SDS011;65580;49.446;6.854;2023-04-03T01:05:52;4.05;;;2.70;;
8694;SDS011;65580;49.446;6.854;2023-04-03T01:09:57;4.55;;;2.78;;
8694;SDS011;65580;49.446;6.854;2023-04-03T01:14:01;6.60;;;2.60;;
8694;SDS011;65580;49.446;6.854;2023-04-03T01:18:04;4.30;;;2.30;;
8694;SDS011;65580;49.446;6.854;2023-04-03T01:22:14;3.05;;;2.50;;
8694;SDS011;65580;49.446;6.854;2023-04-03T01:26:20;4.43;;;2.63;;
8694;SDS011;65580;49.446;6.854;2023-04-03T01:30:24;3.90;;;2.85;;
8694;SDS011;65580;49.446;6.854;2023-04-03T01:34:30;6.82;;;2.95;;
8694;SDS011;65580;49.446;6.854;2023-04-03T01:38:33;4.40;;;2.63;;
8694;SDS011;65580;49.446;6.854;2023-04-03T01:42:36;4.30;;;2.75;;
8694;SDS011;65580;49.446;6.854;2023-04-03T01:46:39;4.03;;;2.78;;
8694;SDS011;65580;49.446;6.854;2023-04-03T01:50:44;4.65;;;2.72;;
8694;SDS011;65580;49.446;6.854;2023-04-03T01:54:47;5.15;;;3.00;;
8694;SDS011;65580;49.446;6.854;2023-04-03T01:58:50;6.45;;;2.97;;
8694;SDS011;65580;49.446;6.854;2023-04-03T02:02:53;5.13;;;2.83;;
8694;SDS011;65580;49.446;6.854;2023-04-03T02:06:58;4.93;;;2.90;;
8694;SDS011;65580;49.446;6.854;2023-04-03T02:11:00;7.45;;;2.80;;
8694;SDS011;65580;49.446;6.854;2023-04-03T02:15:04;7.25;;;3.00;;
8694;SDS011;65580;49.446;6.854;2023-04-03T02:19:08;2.97;;;2.67;;
8694;SDS011;65580;49.446;6.854;2023-04-03T02:23:12;4.55;;;3.28;;
8694;SDS011;65580;49.446;6.854;2023-04-03T02:27:15;5.68;;;3.40;;
8694;SDS011;65580;49.446;6.854;2023-04-03T02:31:18;5.38;;;3.25;;
8694;SDS011;65580;49.446;6.854;2023-04-03T02:35:22;4.38;;;3.17;;
8694;SDS011;65580;49.446;6.854;2023-04-03T02:39:26;7.70;;;3.00;;
8694;SDS011;65580;49.446;6.854;2023-04-03T02:43:29;5.90;;;3.10;;
8694;SDS011;65580;49.446;6.854;2023-04-03T02:47:32;4.88;;;3.60;;
8694;SDS011;65580;49.446;6.854;2023-04-03T02:51:35;6.88;;;3.38;;
8694;SDS011;65580;49.446;6.854;2023-04-03T02:55:39;7.10;;;4.30;;
8694;SDS011;65580;49.446;6.854;2023-04-03T02:59:42;8.68;;;4.20;;
8694;SDS011;65580;49.446;6.854;2023-04-03T03:03:45;6.57;;;3.97;;
8694;SDS011;65580;49.446;6.854;2023-04-03T03:07:48;8.52;;;3.72;;
8694;SDS011;65580;49.446;6.854;2023-04-03T03:11:52;6.53;;;3.38;;
8694;SDS011;65580;49.446;6.854;2023-04-03T03:15:55;8.73;;;6.00;;
8694;SDS011;65580;49.446;6.854;2023-04-03T03:19:58;7.20;;;4.40;;
8694;SDS011;65580;49.446;6.854;2023-04-03T03:24:01;7.90;;;4.38;;
8694;SDS011;65580;49.446;6.854;2023-04-03T03:28:06;7.85;;;4.75;;
8694;SDS011;65580;49.446;6.854;2023-04-03T03:32:09;7.68;;;4.50;;
8694;SDS011;65580;49.446;6.854;2023-04-03T03:36:12;11.25;;;5.85;;
8694;SDS011;65580;49.446;6.854;2023-04-03T03:40:16;10.23;;;4.53;;
8694;SDS011;65580;49.446;6.854;2023-04-03T03:44:20;9.95;;;4.88;;
8694;SDS011;65580;49.446;6.854;2023-04-03T03:48:24;8.55;;;4.70;;
8694;SDS011;65580;49.446;6.854;2023-04-03T03:52:27;13.70;;;6.50;;
8694;SDS011;65580;49.446;6.854;2023-04-03T03:56:31;11.13;;;6.47;;
8694;SDS011;65580;49.446;6.854;2023-04-03T04:00:35;16.80;;;7.97;;
8694;SDS011;65580;49.446;6.854;2023-04-03T04:04:39;12.98;;;5.72;;
8694;SDS011;65580;49.446;6.854;2023-04-03T04:08:42;12.77;;;7.03;;
8694;SDS011;65580;49.446;6.854;2023-04-03T04:12:45;13.75;;;6.53;;
8694;SDS011;65580;49.446;6.854;2023-04-03T04:16:52;15.18;;;8.00;;
8694;SDS011;65580;49.446;6.854;2023-04-03T04:20:55;14.23;;;7.65;;
8694;SDS011;65580;49.446;6.854;2023-04-03T04:24:58;12.25;;;7.05;;
8694;SDS011;65580;49.446;6.854;2023-04-03T04:29:01;13.43;;;6.05;;
8694;SDS011;65580;49.446;6.854;2023-04-03T04:33:05;14.23;;;6.55;;
8694;SDS011;65580;49.446;6.854;2023-04-03T04:37:08;10.88;;;5.80;;
8694;SDS011;65580;49.446;6.854;2023-04-03T04:41:12;16.33;;;7.97;;
8694;SDS011;65580;49.446;6.854;2023-04-03T04:45:15;12.20;;;6.22;;
8694;SDS011;65580;49.446;6.854;2023-04-03T04:49:19;13.43;;;7.07;;
8694;SDS011;65580;49.446;6.854;2023-04-03T04:53:22;17.23;;;8.57;;
8694;SDS011;65580;49.446;6.854;2023-04-03T04:57:25;16.27;;;8.63;;
8694;SDS011;65580;49.446;6.854;2023-04-03T05:01:28;17.52;;;8.50;;
8694;SDS011;65580;49.446;6.854;2023-04-03T05:05:33;19.30;;;8.63;;
8694;SDS011;65580;49.446;6.854;2023-04-03T05:09:37;11.55;;;6.38;;
8694;SDS011;65580;49.446;6.854;2023-04-03T05:13:39;13.98;;;7.50;;
8694;SDS011;65580;49.446;6.854;2023-04-03T05:17:42;16.65;;;8.90;;
8694;SDS011;65580;49.446;6.854;2023-04-03T05:21:47;18.33;;;8.98;;
8694;SDS011;65580;49.446;6.854;2023-04-03T05:25:50;17.15;;;8.48;;
8694;SDS011;65580;49.446;6.854;2023-04-03T05:29:52;14.68;;;7.30;;
8694;SDS011;65580;49.446;6.854;2023-04-03T05:33:55;9.95;;;4.28;;
8694;SDS011;65580;49.446;6.854;2023-04-03T05:38:00;13.20;;;4.70;;
8694;SDS011;65580;49.446;6.854;2023-04-03T05:42:03;7.68;;;3.95;;
8694;SDS011;65580;49.446;6.854;2023-04-03T05:46:08;6.03;;;3.20;;
8694;SDS011;65580;49.446;6.854;2023-04-03T05:50:12;6.10;;;3.00;;
8694;SDS011;65580;49.446;6.854;2023-04-03T05:54:17;5.93;;;3.25;;
8694;SDS011;65580;49.446;6.854;2023-04-03T05:58:22;5.22;;;2.90;;
8694;SDS011;65580;49.446;6.854;2023-04-03T06:02:25;7.47;;;3.20;;
8694;SDS011;65580;49.446;6.854;2023-04-03T06:06:42;5.80;;;2.90;;
8694;SDS011;65580;49.446;6.854;2023-04-03T06:10:47;4.22;;;2.33;;
8694;SDS011;65580;49.446;6.854;2023-04-03T06:14:50;5.78;;;2.63;;
8694;SDS011;65580;49.446;6.854;2023-04-03T06:18:53;4.82;;;2.63;;
8694;SDS011;65580;49.446;6.854;2023-04-03T06:22:56;5.40;;;2.85;;
8694;SDS011;65580;49.446;6.854;2023-04-03T06:27:01;6.47;;;2.72;;
8694;SDS011;65580;49.446;6.854;2023-04-03T06:31:03;9.18;;;3.00;;
8694;SDS011;65580;49.446;6.854;2023-04-03T06:35:06;7.65;;;3.38;;
8694;SDS011;65580;49.446;6.854;2023-04-03T06:39:11;4.70;;;2.72;;
8694;SDS011;65580;49.446;6.854;2023-04-03T06:43:17;8.18;;;2.80;;
8694;SDS011;65580;49.446;6.854;2023-04-03T06:47:20;4.45;;;2.42;;
8694;SDS011;65580;49.446;6.854;2023-04-03T06:51:23;5.68;;;2.22;;
8694;SDS011;65580;49.446;6.854;2023-04-03T06:55:28;3.38;;;1.83;;
8694;SDS011;65580;49.446;6.854;2023-04-03T06:59:32;4.57;;;1.92;;
8694;SDS011;65580;49.446;6.854;2023-04-03T07:03:35;3.25;;;1.92;;
8694;SDS011;65580;49.446;6.854;2023-04-03T07:07:38;2.88;;;1.40;;
8694;SDS011;65580;49.446;6.854;2023-04-03T07:11:41;4.38;;;1.73;;
8694;SDS011;65580;49.446;6.854;2023-04-03T07:15:45;7.53;;;1.85;;
8694;SDS011;65580;49.446;6.854;2023-04-03T07:19:48;5.47;;;2.20;;
8694;SDS011;65580;49.446;6.854;2023-04-03T07:23:51;4.10;;;2.00;;
8694;SDS011;65580;49.446;6.854;2023-04-03T07:27:54;4.93;;;1.75;;
8694;SDS011;65580;49.446;6.854;2023-04-03T07:31:59;3.15;;;1.65;;
8694;SDS011;65580;49.446;6.854;2023-04-03T07:36:02;6.28;;;2.08;;
8694;SDS011;65580;49.446;6.854;2023-04-03T07:40:06;5.20;;;1.80;;
8694;SDS011;65580;49.446;6.854;2023-04-03T07:44:10;3.10;;;1.80;;
8694;SDS011;65580;49.446;6.854;2023-04-03T07:48:14;4.18;;;1.83;;
8694;SDS011;65580;49.446;6.854;2023-04-03T07:52:18;5.65;;;1.88;;
8694;SDS011;65580;49.446;6.854;2023-04-03T07:56:21;4.70;;;1.80;;
8694;SDS011;65580;49.446;6.854;2023-04-03T08:00:24;5.82;;;1.90;;
8694;SDS011;65580;49.446;6.854;2023-04-03T08:04:28;5.53;;;2.05;;
8694;SDS011;65580;49.446;6.854;2023-04-03T08:08:32;4.03;;;1.80;;
8694;SDS011;65580;49.446;6.854;2023-04-03T08:12:35;5.90;;;1.77;;
8694;SDS011;65580;49.446;6.854;2023-04-03T08:16:39;4.18;;;1.90;;
8694;SDS011;65580;49.446;6.854;2023-04-03T08:20:43;6.55;;;1.70;;
8694;SDS011;65580;49.446;6.854;2023-04-03T08:24:46;4.88;;;1.50;;
8694;SDS011;65580;49.446;6.854;2023-04-03T08:28:59;3.70;;;1.63;;
8694;SDS011;65580;49.446;6.854;2023-04-03T08:33:02;5.85;;;1.65;;
8694;SDS011;65580;49.446;6.854;2023-04-03T08:37:06;5.20;;;1.67;;
8694;SDS011;65580;49.446;6.854;2023-04-03T08:41:11;2.35;;;1.30;;
8694;SDS011;65580;49.446;6.854;2023-04-03T08:45:19;3.85;;;1.63;;
8694;SDS011;65580;49.446;6.854;2023-04-03T08:49:26;4.38;;;1.58;;
8694;SDS011;65580;49.446;6.854;2023-04-03T08:53:33;4.50;;;1.60;;
8694;SDS011;65580;49.446;6.854;2023-04-03T08:57:39;3.65;;;1.50;;
8694;SDS011;65580;49.446;6.854;2023-04-03T09:01:43;3.53;;;1.70;;
8694;SDS011;65580;49.446;6.854;2023-04-03T09:05:48;4.45;;;1.90;;
8694;SDS011;65580;49.446;6.854;2023-04-03T09:09:56;2.97;;;1.60;;
8694;SDS011;65580;49.446;6.854;2023-04-03T09:14:01;7.93;;;1.83;;
8694;SDS011;65580;49.446;6.854;2023-04-03T09:18:06;4.80;;;1.70;;
8694;SDS011;65580;49.446;6.854;2023-04-03T09:22:17;3.63;;;1.60;;
8694;SDS011;65580;49.446;6.854;2023-04-03T09:26:25;1.95;;;1.30;;
8694;SDS011;65580;49.446;6.854;2023-04-03T09:30:31;4.18;;;1.60;;
8694;SDS011;65580;49.446;6.854;2023-04-03T09:34:36;3.60;;;1.52;;
8694;SDS011;65580;49.446;6.854;2023-04-03T09:38:39;3.22;;;1.60;;
8694;SDS011;65580;49.446;6.854;2023-04-03T09:42:43;2.10;;;1.42;;
8694;SDS011;65580;49.446;6.854;2023-04-03T09:46:52;4.07;;;1.55;;
8694;SDS011;65580;49.446;6.854;2023-04-03T09:50:56;3.58;;;1.67;;
8694;SDS011;65580;49.446;6.854;2023-04-03T09:55:05;3.85;;;1.80;;
8694;SDS011;65580;49.446;6.854;2023-04-03T09:59:14;5.90;;;1.70;;
8694;SDS011;65580;49.446;6.854;2023-04-03T10:03:23;5.63;;;1.85;;
8694;SDS011;65580;49.446;6.854;2023-04-03T10:07:29;3.53;;;1.40;;
8694;SDS011;65580;49.446;6.854;2023-04-03T10:11:33;1.90;;;1.52;;
8694;SDS011;65580;49.446;6.854;2023-04-03T10:15:38;4.22;;;1.63;;
8694;SDS011;65580;49.446;6.854;2023-04-03T10:19:44;6.85;;;1.80;;
8694;SDS011;65580;49.446;6.854;2023-04-03T10:23:49;2.80;;;1.65;;
8694;SDS011;65580;49.446;6.854;2023-04-03T10:27:55;5.93;;;2.05;;
8694;SDS011;65580;49.446;6.854;2023-04-03T10:32:06;4.60;;;1.63;;
8694;SDS011;65580;49.446;6.854;2023-04-03T10:36:23;5.10;;;2.00;;
8694;SDS011;65580;49.446;6.854;2023-04-03T10:40:30;3.58;;;1.55;;
8694;SDS011;65580;49.446;6.854;2023-04-03T10:44:40;4.45;;;1.73;;
8694;SDS011;65580;49.446;6.854;2023-04-03T10:49:05;2.42;;;1.58;;
8694;SDS011;65580;49.446;6.854;2023-04-03T10:53:17;3.78;;;1.73;;
8694;SDS011;65580;49.446;6.854;2023-04-03T10:57:24;2.95;;;2.00;;
8694;SDS011;65580;49.446;6.854;2023-04-03T11:01:29;4.15;;;1.60;;
8694;SDS011;65580;49.446;6.854;2023-04-03T11:05:36;4.22;;;1.70;;
8694;SDS011;65580;49.446;6.854;2023-04-03T11:09:43;6.50;;;2.38;;
8694;SDS011;65580;49.446;6.854;2023-04-03T11:13:49;2.85;;;1.80;;
8694;SDS011;65580;49.446;6.854;2023-04-03T11:17:54;4.82;;;1.90;;
8694;SDS011;65580;49.446;6.854;2023-04-03T11:22:00;7.50;;;1.85;;
8694;SDS011;65580;49.446;6.854;2023-04-03T11:26:10;2.45;;;1.45;;
8694;SDS011;65580;49.446;6.854;2023-04-03T11:30:16;3.92;;;1.70;;
8694;SDS011;65580;49.446;6.854;2023-04-03T11:34:24;3.00;;;1.58;;
8694;SDS011;65580;49.446;6.854;2023-04-03T11:38:35;3.58;;;1.58;;
8694;SDS011;65580;49.446;6.854;2023-04-03T11:42:40;3.78;;;1.60;;
8694;SDS011;65580;49.446;6.854;2023-04-03T11:46:49;2.78;;;1.35;;
8694;SDS011;65580;49.446;6.854;2023-04-03T11:50:57;3.60;;;1.50;;
8694;SDS011;65580;49.446;6.854;2023-04-03T11:55:02;7.55;;;1.58;;
8694;SDS011;65580;49.446;6.854;2023-04-03T11:59:26;4.53;;;1.50;;
8694;SDS011;65580;49.446;6.854;2023-04-03T12:08:15;4.50;;;1.30;;
8694;SDS011;65580;49.446;6.854;2023-04-03T12:12:28;2.42;;;1.27;;
8694;SDS011;65580;49.446;6.854;2023-04-03T12:16:33;3.00;;;1.50;;
8694;SDS011;65580;49.446;6.854;2023-04-03T12:20:56;2.90;;;1.30;;
8694;SDS011;65580;49.446;6.854;2023-04-03T12:25:00;5.95;;;1.40;;
8694;SDS011;65580;49.446;6.854;2023-04-03T12:29:42;2.45;;;1.30;;
8694;SDS011;65580;49.446;6.854;2023-04-03T12:33:57;6.63;;;1.35;;
8694;SDS011;65580;49.446;6.854;2023-04-03T12:42:41;2.38;;;1.25;;
8694;SDS011;65580;49.446;6.854;2023-04-03T12:47:00;4.57;;;1.13;;
8694;SDS011;65580;49.446;6.854;2023-04-03T12:51:05;3.28;;;1.20;;
8694;SDS011;65580;49.446;6.854;2023-04-03T12:55:13;2.17;;;1.30;;
8694;SDS011;65580;49.446;6.854;2023-04-03T12:59:19;5.07;;;1.20;;
8694;SDS011;65580;49.446;6.854;2023-04-03T13:03:25;3.28;;;1.05;;
8694;SDS011;65580;49.446;6.854;2023-04-03T13:07:29;6.25;;;1.20;;
8694;SDS011;65580;49.446;6.854;2023-04-03T13:11:35;1.98;;;1.13;;
8694;SDS011;65580;49.446;6.854;2023-04-03T13:15:40;1.73;;;0.98;;
8694;SDS011;65580;49.446;6.854;2023-04-03T13:19:46;3.45;;;1.40;;
8694;SDS011;65580;49.446;6.854;2023-04-03T13:23:49;3.42;;;1.70;;
8694;SDS011;65580;49.446;6.854;2023-04-03T13:28:09;2.83;;;1.20;;
8694;SDS011;65580;49.446;6.854;2023-04-03T13:32:16;4.30;;;1.50;;
8694;SDS011;65580;49.446;6.854;2023-04-03T13:36:23;2.30;;;1.38;;
8694;SDS011;65580;49.446;6.854;2023-04-03T13:40:27;4.32;;;1.60;;
8694;SDS011;65580;49.446;6.854;2023-04-03T13:44:42;3.97;;;1.58;;
8694;SDS011;65580;49.446;6.854;2023-04-03T13:52:52;3.13;;;1.30;;
8694;SDS011;65580;49.446;6.854;2023-04-03T13:56:57;4.30;;;1.38;;
8694;SDS011;65580;49.446;6.854;2023-04-03T14:01:06;2.50;;;1.40;;
8694;SDS011;65580;49.446;6.854;2023-04-03T14:05:10;3.10;;;1.27;;
8694;SDS011;65580;49.446;6.854;2023-04-03T14:09:15;3.28;;;1.38;;
8694;SDS011;65580;49.446;6.854;2023-04-03T14:13:18;4.90;;;1.40;;
8694;SDS011;65580;49.446;6.854;2023-04-03T14:17:23;4.57;;;1.50;;
8694;SDS011;65580;49.446;6.854;2023-04-03T14:21:29;4.85;;;1.48;;
8694;SDS011;65580;49.446;6.854;2023-04-03T14:25:33;3.70;;;1.70;;
8694;SDS011;65580;49.446;6.854;2023-04-03T14:29:36;5.35;;;1.70;;
8694;SDS011;65580;49.446;6.854;2023-04-03T14:33:39;5.35;;;1.88;;
8694;SDS011;65580;49.446;6.854;2023-04-03T14:37:42;3.55;;;1.70;;
8694;SDS011;65580;49.446;6.854;2023-04-03T14:41:47;3.88;;;1.50;;
8694;SDS011;65580;49.446;6.854;2023-04-03T14:45:50;4.13;;;1.77;;
8694;SDS011;65580;49.446;6.854;2023-04-03T14:49:53;2.53;;;1.40;;
8694;SDS011;65580;49.446;6.854;2023-04-03T14:53:56;3.40;;;1.50;;
8694;SDS011;65580;49.446;6.854;2023-04-03T14:58:00;6.20;;;1.80;;
8694;SDS011;65580;49.446;6.854;2023-04-03T15:02:25;4.22;;;1.75;;
8694;SDS011;65580;49.446;6.854;2023-04-03T15:06:31;5.45;;;1.45;;
8694;SDS011;65580;49.446;6.854;2023-04-03T15:10:34;4.60;;;1.80;;
8694;SDS011;65580;49.446;6.854;2023-04-03T15:14:37;7.45;;;1.67;;
8694;SDS011;65580;49.446;6.854;2023-04-03T15:18:59;4.68;;;1.58;;
8694;SDS011;65580;49.446;6.854;2023-04-03T15:23:02;3.55;;;1.77;;
8694;SDS011;65580;49.446;6.854;2023-04-03T15:27:05;4.95;;;1.90;;
8694;SDS011;65580;49.446;6.854;2023-04-03T15:31:08;3.85;;;1.73;;
8694;SDS011;65580;49.446;6.854;2023-04-03T15:35:12;3.42;;;1.40;;
8694;SDS011;65580;49.446;6.854;2023-04-03T15:39:15;2.78;;;1.77;;
8694;SDS011;65580;49.446;6.854;2023-04-03T15:43:18;5.78;;;1.80;;
8694;SDS011;65580;49.446;6.854;2023-04-03T15:47:21;3.28;;;1.48;;
8694;SDS011;65580;49.446;6.854;2023-04-03T15:51:26;8.80;;;1.73;;
8694;SDS011;65580;49.446;6.854;2023-04-03T15:55:29;4.43;;;1.70;;
8694;SDS011;65580;49.446;6.854;2023-04-03T15:59:33;3.08;;;1.70;;
8694;SDS011;65580;49.446;6.854;2023-04-03T16:03:36;5.15;;;1.80;;
8694;SDS011;65580;49.446;6.854;2023-04-03T16:07:41;4.53;;;1.70;;
8694;SDS011;65580;49.446;6.854;2023-04-03T16:11:44;2.95;;;1.80;;
8694;SDS011;65580;49.446;6.854;2023-04-03T16:15:47;4.13;;;1.80;;
8694;SDS011;65580;49.446;6.854;2023-04-03T16:19:50;4.60;;;1.77;;
8694;SDS011;65580;49.446;6.854;2023-04-03T16:23:54;6.28;;;2.15;;
8694;SDS011;65580;49.446;6.854;2023-04-03T16:27:58;2.72;;;1.60;;
8694;SDS011;65580;49.446;6.854;2023-04-03T16:32:01;4.78;;;2.05;;
8694;SDS011;65580;49.446;6.854;2023-04-03T16:36:05;4.38;;;2.03;;
8694;SDS011;65580;49.446;6.854;2023-04-03T16:40:09;2.83;;;1.65;;
8694;SDS011;65580;49.446;6.854;2023-04-03T16:44:13;4.70;;;2.00;;
8694;SDS011;65580;49.446;6.854;2023-04-03T16:48:16;2.33;;;1.67;;
8694;SDS011;65580;49.446;6.854;2023-04-03T16:52:19;3.13;;;1.90;;
8694;SDS011;65580;49.446;6.854;2023-04-03T16:56:23;3.17;;;1.95;;
8694;SDS011;65580;49.446;6.854;2023-04-03T17:00:28;4.65;;;1.60;;
8694;SDS011;65580;49.446;6.854;2023-04-03T17:04:30;4.18;;;1.60;;
8694;SDS011;65580;49.446;6.854;2023-04-03T17:08:33;3.38;;;1.75;;
8694;SDS011;65580;49.446;6.854;2023-04-03T17:12:37;3.85;;;1.83;;
8694;SDS011;65580;49.446;6.854;2023-04-03T17:16:40;3.63;;;2.00;;
8694;SDS011;65580;49.446;6.854;2023-04-03T17:20:43;3.08;;;1.90;;
8694;SDS011;65580;49.446;6.854;2023-04-03T17:24:45;4.25;;;1.92;;
8694;SDS011;65580;49.446;6.854;2023-04-03T17:28:50;5.65;;;2.92;;
8694;SDS011;65580;49.446;6.854;2023-04-03T17:32:52;4.05;;;2.00;;
8694;SDS011;65580;49.446;6.854;2023-04-03T17:36:55;5.00;;;2.20;;
8694;SDS011;65580;49.446;6.854;2023-04-03T17:40:58;3.10;;;1.70;;
8694;SDS011;65580;49.446;6.854;2023-04-03T17:45:03;5.30;;;1.95;;
8694;SDS011;65580;49.446;6.854;2023-04-03T17:49:07;3.00;;;2.10;;
8694;SDS011;65580;49.446;6.854;2023-04-03T17:53:14;4.72;;;2.17;;
8694;SDS011;65580;49.446;6.854;2023-04-03T17:57:16;3.30;;;1.80;;
8694;SDS011;65580;49.446;6.854;2023-04-03T18:01:21;6.75;;;2.10;;
8694;SDS011;65580;49.446;6.854;2023-04-03T18:05:26;2.83;;;1.85;;
8694;SDS011;65580;49.446;6.854;2023-04-03T18:09:29;3.35;;;1.70;;
8694;SDS011;65580;49.446;6.854;2023-04-03T18:13:33;3.97;;;1.83;;
8694;SDS011;65580;49.446;6.854;2023-04-03T18:17:39;4.75;;;2.00;;
8694;SDS011;65580;49.446;6.854;2023-04-03T18:21:41;3.20;;;1.92;;
8694;SDS011;65580;49.446;6.854;2023-04-03T18:25:45;4.20;;;1.80;;
8694;SDS011;65580;49.446;6.854;2023-04-03T18:29:49;3.58;;;1.67;;
8694;SDS011;65580;49.446;6.854;2023-04-03T18:33:56;7.28;;;2.03;;
8694;SDS011;65580;49.446;6.854;2023-04-03T18:37:59;4.93;;;1.80;;
8694;SDS011;65580;49.446;6.854;2023-04-03T18:42:04;5.47;;;2.25;;
8694;SDS011;65580;49.446;6.854;2023-04-03T18:46:09;3.60;;;2.10;;
8694;SDS011;65580;49.446;6.854;2023-04-03T18:50:13;4.55;;;2.47;;
8694;SDS011;65580;49.446;6.854;2023-04-03T18:54:17;7.47;;;2.30;;
8694;SDS011;65580;49.446;6.854;2023-04-03T18:58:20;4.47;;;2.00;;
8694;SDS011;65580;49.446;6.854;2023-04-03T19:02:23;2.95;;;1.90;;
8694;SDS011;65580;49.446;6.854;2023-04-03T19:06:28;3.60;;;2.20;;
8694;SDS011;65580;49.446;6.854;2023-04-03T19:10:31;8.30;;;3.40;;
8694;SDS011;65580;49.446;6.854;2023-04-03T19:14:33;6.72;;;3.03;;
8694;SDS011;65580;49.446;6.854;2023-04-03T19:18:36;7.93;;;3.10;;
8694;SDS011;65580;49.446;6.854;2023-04-03T19:22:40;6.53;;;2.90;;
8694;SDS011;65580;49.446;6.854;2023-04-03T19:30:46;7.15;;;2.67;;
8694;SDS011;65580;49.446;6.854;2023-04-03T19:34:49;10.30;;;3.35;;
8694;SDS011;65580;49.446;6.854;2023-04-03T19:38:53;10.95;;;3.75;;
8694;SDS011;65580;49.446;6.854;2023-04-03T19:42:55;7.70;;;3.25;;
8694;SDS011;65580;49.446;6.854;2023-04-03T19:46:58;6.47;;;3.05;;
8694;SDS011;65580;49.446;6.854;2023-04-03T19:51:02;5.57;;;2.97;;
8694;SDS011;65580;49.446;6.854;2023-04-03T19:59:10;7.05;;;3.00;;
8694;SDS011;65580;49.446;6.854;2023-04-03T20:03:14;5.72;;;2.78;;
8694;SDS011;65580;49.446;6.854;2023-04-03T20:07:17;8.00;;;3.13;;
8694;SDS011;65580;49.446;6.854;2023-04-03T20:11:21;7.80;;;3.05;;
8694;SDS011;65580;49.446;6.854;2023-04-03T20:15:24;3.78;;;2.00;;
8694;SDS011;65580;49.446;6.854;2023-04-03T20:23:32;3.75;;;1.90;;
8694;SDS011;65580;49.446;6.854;2023-04-03T20:27:38;5.95;;;2.30;;
8694;SDS011;65580;49.446;6.854;2023-04-03T20:31:41;7.43;;;2.80;;
8694;SDS011;65580;49.446;6.854;2023-04-03T20:35:44;7.25;;;2.40;;
8694;SDS011;65580;49.446;6.854;2023-04-03T20:39:47;4.53;;;1.92;;
8694;SDS011;65580;49.446;6.854;2023-04-03T20:43:51;4.13;;;1.60;;
8694;SDS011;65580;49.446;6.854;2023-04-03T20:47:54;3.63;;;1.70;;
8694;SDS011;65580;49.446;6.854;2023-04-03T20:51:57;8.95;;;2.65;;
8694;SDS011;65580;49.446;6.854;2023-04-03T20:56:00;6.32;;;1.40;;
8694;SDS011;65580;49.446;6.854;2023-04-03T21:00:06;4.10;;;1.77;;
8694;SDS011;65580;49.446;6.854;2023-04-03T21:04:12;2.47;;;1.25;;
8694;SDS011;65580;49.446;6.854;2023-04-03T21:22:03;2.38;;;1.15;;
8694;SDS011;65580;49.446;6.854;2023-04-03T21:26:07;2.70;;;1.25;;
8694;SDS011;65580;49.446;6.854;2023-04-03T21:30:10;4.18;;;1.35;;
8694;SDS011;65580;49.446;6.854;2023-04-03T21:34:14;3.75;;;1.40;;
8694;SDS011;65580;49.446;6.854;2023-04-03T21:38:17;4.00;;;1.30;;
8694;SDS011;65580;49.446;6.854;2023-04-03T21:42:20;2.42;;;1.02;;
8694;SDS011;65580;49.446;6.854;2023-04-03T21:46:23;5.28;;;1.60;;
8694;SDS011;65580;49.446;6.854;2023-04-03T21:50:27;3.40;;;1.20;;
8694;SDS011;65580;49.446;6.854;2023-04-03T21:54:30;2.60;;;1.25;;
8694;SDS011;65580;49.446;6.854;2023-04-03T21:58:33;6.15;;;1.33;;
8694;SDS011;65580;49.446;6.854;2023-04-03T22:02:38;6.40;;;1.25;;
8694;SDS011;65580;49.446;6.854;2023-04-03T22:06:42;1.40;;;1.10;;
8694;SDS011;65580;49.446;6.854;2023-04-03T22:10:46;3.42;;;1.30;;
8694;SDS011;65580;49.446;6.854;2023-04-03T22:14:48;3.15;;;1.27;;
8694;SDS011;65580;49.446;6.854;2023-04-03T22:18:51;2.08;;;1.20;;
8694;SDS011;65580;49.446;6.854;2023-04-03T22:22:56;2.88;;;1.25;;
8694;SDS011;65580;49.446;6.854;2023-04-03T22:26:58;4.85;;;1.40;;
8694;SDS011;65580;49.446;6.854;2023-04-03T22:31:02;3.42;;;1.40;;
8694;SDS011;65580;49.446;6.854;2023-04-03T22:35:07;1.98;;;1.30;;
8694;SDS011;65580;49.446;6.854;2023-04-03T22:39:12;4.05;;;1.45;;
8694;SDS011;65580;49.446;6.854;2023-04-03T22:43:16;3.33;;;1.38;;
8694;SDS011;65580;49.446;6.854;2023-04-03T22:47:19;4.20;;;1.25;;
8694;SDS011;65580;49.446;6.854;2023-04-03T22:51:22;4.55;;;1.35;;
8694;SDS011;65580;49.446;6.854;2023-04-03T22:55:26;2.22;;;1.30;;
8694;SDS011;65580;49.446;6.854;2023-04-03T22:59:28;3.50;;;1.17;;
8694;SDS011;65580;49.446;6.854;2023-04-03T23:03:32;4.07;;;1.40;;
8694;SDS011;65580;49.446;6.854;2023-04-03T23:07:35;3.63;;;1.40;;
8694;SDS011;65580;49.446;6.854;2023-04-03T23:11:39;4.63;;;1.27;;
8694;SDS011;65580;49.446;6.854;2023-04-03T23:15:43;4.85;;;1.48;;
8694;SDS011;65580;49.446;6.854;2023-04-03T23:19:45;2.78;;;1.33;;
8694;SDS011;65580;49.446;6.854;2023-04-03T23:23:48;5.53;;;1.40;;
8694;SDS011;65580;49.446;6.854;2023-04-03T23:27:52;3.45;;;1.30;;
8694;SDS011;65580;49.446;6.854;2023-04-03T23:31:56;2.88;;;1.30;;
8694;SDS011;65580;49.446;6.854;2023-04-03T23:35:59;2.50;;;1.27;;
8694;SDS011;65580;49.446;6.854;2023-04-03T23:40:02;3.03;;;1.45;;
8694;SDS011;65580;49.446;6.854;2023-04-03T23:44:06;4.60;;;1.40;;
8694;SDS011;65580;49.446;6.854;2023-04-03T23:48:09;5.43;;;1.40;;
8694;SDS011;65580;49.446;6.854;2023-04-03T23:52:12;4.53;;;1.58;;
8694;SDS011;65580;49.446;6.854;2023-04-03T23:56:14;4.75;;;1.70;;
